Time;durP1;ratioP1;P1;durP2;ratioP2;P2;SDS_P1;SDS_P2;PMS_P1;PMS_P2;Temp;Humidity;BMP_temperature;BMP_pressure;BME280_temperature;BME280_humidity;BME280_pressure;Samples;Min_cycle;Max_cycle;Signal;HPM_P1;HPM_P2
2021/12/04 00:00:21;;;;;;;7.32;6.10;;;5.30;99.90;;;;;;5016094;28;20276;-64
2021/12/04 00:02:47;;;;;;;7.72;5.72;;;5.20;99.90;;;;;;5019228;28;20148;-64
2021/12/04 00:05:13;;;;;;;6.78;5.47;;;5.20;99.90;;;;;;5013851;28;20030;-64
2021/12/04 00:07:39;;;;;;;6.55;4.57;;;5.00;99.90;;;;;;5014849;28;20038;-64
2021/12/04 00:10:05;;;;;;;7.00;5.00;;;5.00;99.90;;;;;;5015792;28;20025;-64
2021/12/04 00:12:32;;;;;;;5.40;4.28;;;5.10;99.90;;;;;;5017708;28;20060;-64
2021/12/04 00:14:59;;;;;;;6.32;4.97;;;5.00;99.90;;;;;;5014840;28;20129;-64
2021/12/04 00:17:26;;;;;;;5.15;4.18;;;4.90;99.90;;;;;;5015645;28;20040;-64
2021/12/04 00:19:52;;;;;;;6.95;4.70;;;4.90;99.90;;;;;;5015085;28;20057;-64
2021/12/04 00:22:18;;;;;;;7.07;4.82;;;5.00;99.90;;;;;;5015425;28;20084;-64
2021/12/04 00:24:43;;;;;;;5.63;4.55;;;4.90;99.90;;;;;;5017590;28;20481;-64
2021/12/04 00:27:09;;;;;;;8.25;5.15;;;4.80;99.90;;;;;;5012723;28;20034;-64
2021/12/04 00:29:35;;;;;;;7.55;4.60;;;4.90;99.90;;;;;;5017139;28;20041;-64
2021/12/04 00:32:11;;;;;;;6.38;4.22;;;4.90;99.90;;;;;;5021569;28;20045;-64
2021/12/04 00:34:42;;;;;;;7.28;4.63;;;5.00;99.90;;;;;;5015741;28;20124;-64
2021/12/04 00:50:50;;;;;;;5.65;4.18;;;5.10;99.90;;;;;;5013967;28;20672;-64
2021/12/04 00:53:16;;;;;;;5.57;4.40;;;4.90;99.90;;;;;;5011929;28;20037;-64
2021/12/04 00:55:41;;;;;;;7.13;4.90;;;4.90;99.90;;;;;;5008493;28;20045;-64
2021/12/04 00:58:07;;;;;;;5.72;4.72;;;4.90;99.90;;;;;;5017241;28;20120;-64
2021/12/04 01:00:33;;;;;;;6.70;4.65;;;5.00;99.90;;;;;;5009800;28;20125;-64
2021/12/04 01:02:58;;;;;;;6.97;4.18;;;5.00;99.90;;;;;;5016351;28;20152;-64
2021/12/04 01:05:24;;;;;;;8.32;5.05;;;5.20;99.90;;;;;;5015103;28;20091;-64
2021/12/04 01:07:49;;;;;;;8.07;4.28;;;5.10;99.90;;;;;;5013343;28;20044;-64
2021/12/04 01:10:15;;;;;;;5.75;4.40;;;5.00;99.90;;;;;;5015054;28;20443;-64
2021/12/04 01:12:41;;;;;;;5.20;4.20;;;5.00;99.90;;;;;;5014421;28;20324;-64
2021/12/04 01:15:07;;;;;;;8.90;3.97;;;5.00;99.90;;;;;;5018956;28;20022;-64
2021/12/04 01:17:33;;;;;;;6.05;4.13;;;5.00;99.90;;;;;;5013551;28;20037;-63
2021/12/04 01:19:59;;;;;;;5.07;3.97;;;5.10;99.90;;;;;;5016522;28;20075;-64
2021/12/04 01:22:26;;;;;;;6.22;4.30;;;5.20;99.90;;;;;;5015452;28;20034;-63
2021/12/04 01:24:52;;;;;;;10.48;5.07;;;5.20;99.90;;;;;;5017011;28;20436;-64
2021/12/04 01:27:18;;;;;;;8.55;4.43;;;5.10;99.90;;;;;;5017940;28;20116;-64
2021/12/04 01:29:44;;;;;;;6.00;4.65;;;5.00;99.90;;;;;;5014913;28;20037;-64
2021/12/04 01:32:10;;;;;;;7.63;4.50;;;5.10;99.90;;;;;;5013993;28;20425;-64
2021/12/04 01:34:36;;;;;;;9.00;4.43;;;5.20;99.90;;;;;;5017458;28;20041;-64
2021/12/04 01:37:04;;;;;;;7.55;4.68;;;5.40;99.90;;;;;;5014536;28;20041;-64
2021/12/04 01:39:30;;;;;;;8.93;4.78;;;5.30;99.90;;;;;;5018238;28;20087;-64
2021/12/04 01:41:56;;;;;;;10.27;4.70;;;5.40;99.90;;;;;;5013020;28;20385;-64
2021/12/04 01:44:21;;;;;;;9.52;4.78;;;5.30;99.90;;;;;;5020128;28;20029;-64
2021/12/04 01:46:47;;;;;;;6.45;4.30;;;5.30;99.90;;;;;;5023382;28;20037;-64
2021/12/04 01:49:13;;;;;;;7.40;4.55;;;5.40;99.90;;;;;;5017363;28;20041;-64
2021/12/04 01:51:38;;;;;;;7.22;4.38;;;5.40;99.90;;;;;;5017875;28;20056;-64
2021/12/04 01:54:04;;;;;;;6.72;4.20;;;5.30;99.90;;;;;;5019676;28;20033;-64
2021/12/04 01:56:31;;;;;;;7.22;4.15;;;5.20;99.90;;;;;;5019811;28;20034;-64
2021/12/04 01:58:57;;;;;;;11.43;4.45;;;5.20;99.90;;;;;;5015099;28;20057;-64
2021/12/04 02:01:23;;;;;;;5.47;4.20;;;5.20;99.90;;;;;;5018311;28;20073;-64
2021/12/04 02:03:49;;;;;;;10.85;4.35;;;5.20;99.90;;;;;;5022185;28;20116;-64
2021/12/04 02:06:14;;;;;;;9.23;4.20;;;5.10;99.90;;;;;;5015152;28;20045;-64
2021/12/04 02:08:43;;;;;;;8.45;4.10;;;5.20;99.90;;;;;;5013363;28;20106;-64
2021/12/04 02:11:08;;;;;;;8.00;3.70;;;5.30;99.90;;;;;;5017590;28;20060;-62
2021/12/04 02:13:34;;;;;;;8.90;3.63;;;5.30;99.90;;;;;;5019759;28;20056;-63
2021/12/04 02:16:03;;;;;;;6.07;3.65;;;5.20;99.90;;;;;;5020271;28;20029;-62
2021/12/04 02:18:29;;;;;;;6.68;3.72;;;5.20;99.90;;;;;;5018011;28;20037;-62
2021/12/04 02:20:55;;;;;;;6.70;3.70;;;5.20;99.90;;;;;;5023935;28;20464;-62
2021/12/04 02:23:21;;;;;;;11.63;3.83;;;5.20;99.90;;;;;;5019653;28;20446;-62
2021/12/04 02:25:47;;;;;;;4.95;3.35;;;5.30;99.90;;;;;;5019775;28;20035;-62
2021/12/04 02:28:13;;;;;;;4.75;3.50;;;5.20;99.90;;;;;;5018032;28;20250;-62
2021/12/04 02:30:43;;;;;;;6.80;3.85;;;5.20;99.90;;;;;;5020031;28;20525;-62
2021/12/04 02:33:12;;;;;;;5.45;3.83;;;5.10;99.90;;;;;;5016954;28;20061;-62
2021/12/04 02:35:44;;;;;;;6.20;3.53;;;5.20;99.90;;;;;;5022474;28;20022;-62
2021/12/04 02:38:10;;;;;;;8.65;3.63;;;5.20;99.90;;;;;;5019020;28;20405;-62
2021/12/04 02:40:36;;;;;;;5.07;3.60;;;5.20;99.90;;;;;;5019855;28;20022;-62
2021/12/04 02:43:02;;;;;;;5.22;3.50;;;5.20;99.90;;;;;;5018486;28;20466;-62
2021/12/04 02:45:27;;;;;;;7.50;3.60;;;5.20;99.90;;;;;;5019570;28;20470;-62
2021/12/04 02:47:53;;;;;;;6.00;3.47;;;5.30;99.90;;;;;;5014946;28;20068;-62
2021/12/04 02:50:19;;;;;;;5.13;3.60;;;5.20;99.90;;;;;;5019297;28;20201;-62
2021/12/04 02:52:44;;;;;;;7.20;4.20;;;5.10;99.90;;;;;;5020368;28;20080;-62
2021/12/04 02:55:10;;;;;;;5.07;3.80;;;5.20;99.90;;;;;;5021329;28;20025;-62
2021/12/04 02:57:43;;;;;;;6.85;4.40;;;5.20;99.90;;;;;;5018529;28;20527;-62
2021/12/04 03:00:12;;;;;;;4.90;3.27;;;5.30;99.90;;;;;;5019168;28;20051;-62
2021/12/04 03:02:38;;;;;;;8.00;4.75;;;5.30;99.90;;;;;;5015766;28;20381;-63
2021/12/04 03:05:07;;;;;;;6.30;4.50;;;5.30;99.90;;;;;;5020066;28;20092;-63
2021/12/04 03:07:33;;;;;;;6.10;4.78;;;5.50;99.90;;;;;;5017648;28;20394;-63
2021/12/04 03:09:59;;;;;;;7.72;5.25;;;5.40;99.90;;;;;;5021745;28;20076;-63
2021/12/04 03:12:25;;;;;;;7.00;4.63;;;5.50;99.90;;;;;;5016637;28;20047;-63
2021/12/04 03:14:53;;;;;;;9.27;5.43;;;5.50;99.90;;;;;;5019196;28;20637;-63
2021/12/04 03:17:20;;;;;;;9.82;5.00;;;5.40;99.90;;;;;;5014462;28;20076;-63
2021/12/04 03:19:49;;;;;;;8.23;5.25;;;5.40;99.90;;;;;;5017320;28;20390;-63
2021/12/04 03:22:15;;;;;;;6.55;5.20;;;5.40;99.90;;;;;;5014832;28;20037;-63
2021/12/04 03:24:42;;;;;;;8.20;5.15;;;5.50;99.90;;;;;;5020927;28;20041;-63
2021/12/04 03:27:08;;;;;;;8.57;5.28;;;5.40;99.90;;;;;;5016918;28;20515;-63
2021/12/04 03:29:40;;;;;;;6.30;4.78;;;5.30;99.90;;;;;;5016624;28;20232;-63
2021/12/04 03:43:03;;;;;;;9.90;6.20;;;5.30;99.90;;;;;;5019134;28;20056;-63
2021/12/04 03:45:29;;;;;;;8.15;5.28;;;5.20;99.90;;;;;;5017470;28;20494;-63
2021/12/04 03:48:04;;;;;;;6.55;5.18;;;5.20;99.90;;;;;;5018303;28;20149;-63
2021/12/04 03:50:30;;;;;;;10.77;5.50;;;5.20;99.90;;;;;;5010396;28;20406;-63
2021/12/04 03:52:55;;;;;;;8.38;5.68;;;5.30;99.90;;;;;;5017496;28;20037;-63
2021/12/04 03:55:21;;;;;;;7.75;5.47;;;5.40;99.90;;;;;;5016293;28;20840;-63
2021/12/04 03:57:47;;;;;;;7.40;5.97;;;5.30;99.90;;;;;;5018245;28;20026;-63
2021/12/04 04:00:15;;;;;;;9.07;5.90;;;5.40;99.90;;;;;;5012652;28;20046;-63
2021/12/04 04:02:40;;;;;;;10.85;5.93;;;5.40;99.90;;;;;;5018872;28;20049;-63
2021/12/04 04:05:07;;;;;;;6.93;5.65;;;5.40;99.90;;;;;;5013609;28;20026;-63
2021/12/04 04:07:33;;;;;;;11.60;6.57;;;5.40;99.90;;;;;;5010805;28;20041;-63
2021/12/04 04:09:59;;;;;;;7.63;6.60;;;5.50;99.90;;;;;;5015332;28;20518;-63
2021/12/04 04:12:24;;;;;;;10.00;6.75;;;5.50;99.90;;;;;;5013356;28;20054;-63
2021/12/04 04:14:50;;;;;;;10.50;7.13;;;5.40;99.90;;;;;;5019730;28;20059;-63
2021/12/04 04:17:16;;;;;;;9.85;7.78;;;5.50;99.90;;;;;;5016630;28;20265;-63
2021/12/04 04:19:41;;;;;;;11.98;8.25;;;5.40;99.90;;;;;;5017832;28;20049;-63
2021/12/04 04:22:07;;;;;;;11.60;7.30;;;5.40;99.90;;;;;;5018354;28;20053;-63
2021/12/04 04:24:33;;;;;;;10.95;8.65;;;5.30;99.90;;;;;;5012881;28;20488;-63
2021/12/04 04:26:59;;;;;;;10.30;8.55;;;5.30;99.90;;;;;;5013953;28;20034;-63
2021/12/04 04:29:26;;;;;;;10.50;8.80;;;5.30;99.90;;;;;;5012810;28;20041;-63
2021/12/04 04:31:54;;;;;;;12.75;9.38;;;5.30;99.90;;;;;;5017149;28;20060;-63
2021/12/04 04:34:25;;;;;;;10.68;8.88;;;5.30;99.90;;;;;;5018645;28;20176;-63
2021/12/04 05:01:21;;;;;;;12.27;9.93;;;5.10;99.90;;;;;;5017762;28;20075;-63
2021/12/04 05:12:11;;;;;;;13.30;10.38;;;5.30;99.90;;;;;;5012295;28;20043;-64
2021/12/04 05:14:40;;;;;;;10.40;9.07;;;5.30;99.90;;;;;;5012262;28;20545;-64
2021/12/04 05:19:41;;;;;;;16.95;10.40;;;5.30;99.90;;;;;;5017675;28;20132;-63
2021/12/04 05:22:09;;;;;;;9.70;7.50;;;5.40;99.90;;;;;;5021347;28;20046;-63
2021/12/04 05:24:35;;;;;;;14.65;10.43;;;5.40;99.90;;;;;;5016519;28;20125;-64
2021/12/04 05:27:01;;;;;;;14.25;10.23;;;5.50;99.90;;;;;;5019698;28;20026;-64
2021/12/04 05:29:26;;;;;;;14.02;10.48;;;5.50;99.90;;;;;;5017833;28;20072;-64
2021/12/04 05:31:52;;;;;;;12.73;9.20;;;5.50;99.90;;;;;;5016893;28;20068;-64
2021/12/04 05:34:18;;;;;;;12.65;9.38;;;5.40;99.90;;;;;;5017716;28;20038;-64
2021/12/04 05:36:44;;;;;;;13.40;9.23;;;5.40;99.90;;;;;;5018935;28;20046;-64
2021/12/04 05:39:10;;;;;;;14.75;9.40;;;5.40;99.90;;;;;;5018547;28;20151;-64
2021/12/04 05:41:36;;;;;;;13.25;9.32;;;5.40;99.90;;;;;;5015578;28;20132;-64
2021/12/04 05:44:06;;;;;;;13.13;9.85;;;5.30;99.90;;;;;;5018865;28;20041;-63
2021/12/04 05:46:38;;;;;;;12.90;8.90;;;5.30;99.90;;;;;;5018878;28;20459;-64
2021/12/04 05:49:12;;;;;;;13.73;8.90;;;5.30;99.90;;;;;;5018051;28;20545;-64
2021/12/04 05:55:16;;;;;;;12.55;8.98;;;5.30;99.90;;;;;;5018675;28;20184;-66
2021/12/04 05:57:10;;;;;;;12.32;8.75;;;5.20;99.90;;;;;;5014510;28;20036;-64
2021/12/04 05:59:36;;;;;;;11.77;8.93;;;5.30;99.90;;;;;;5018490;28;20038;-64
2021/12/04 06:02:02;;;;;;;10.65;8.10;;;5.30;99.90;;;;;;5017496;28;20510;-64
2021/12/04 06:04:27;;;;;;;12.60;8.77;;;5.30;99.90;;;;;;5018713;28;20127;-64
2021/12/04 06:06:53;;;;;;;12.63;9.05;;;5.40;99.90;;;;;;5015759;28;20466;-64
2021/12/04 06:09:19;;;;;;;11.98;8.75;;;5.40;99.90;;;;;;5018228;28;20041;-64
2021/12/04 06:11:45;;;;;;;11.70;8.40;;;5.40;99.90;;;;;;5016385;28;20033;-64
2021/12/04 06:14:11;;;;;;;11.18;8.73;;;5.30;99.90;;;;;;5018285;28;20048;-64
2021/12/04 06:16:37;;;;;;;11.23;8.85;;;5.40;99.90;;;;;;5020952;28;20064;-64
2021/12/04 06:22:37;;;;;;;11.63;8.70;;;5.30;99.90;;;;;;5016934;28;20516;-64
2021/12/04 06:24:36;;;;;;;13.50;8.32;;;5.50;99.90;;;;;;5021244;28;20044;-63
2021/12/04 06:27:02;;;;;;;10.68;8.13;;;5.30;99.90;;;;;;5015474;28;20362;-63
2021/12/04 06:29:27;;;;;;;12.10;8.90;;;5.40;99.90;;;;;;5016500;28;20143;-64
2021/12/04 06:31:54;;;;;;;11.43;7.80;;;5.20;99.90;;;;;;5020110;28;20036;-64
2021/12/04 06:34:20;;;;;;;10.57;7.97;;;5.30;99.90;;;;;;5015112;28;20033;-64
2021/12/04 06:36:45;;;;;;;12.05;8.25;;;5.30;99.90;;;;;;5018502;28;20049;-64
2021/12/04 06:39:11;;;;;;;10.43;7.70;;;5.40;99.90;;;;;;5022607;28;20095;-64
2021/12/04 06:41:36;;;;;;;9.68;7.43;;;5.30;99.90;;;;;;5013632;28;20045;-64
2021/12/04 06:44:02;;;;;;;11.90;8.10;;;5.40;99.90;;;;;;5014968;28;20478;-64
2021/12/04 06:46:29;;;;;;;12.02;7.53;;;5.50;99.90;;;;;;5016659;28;20128;-64
2021/12/04 06:51:25;;;;;;;10.80;7.57;;;5.60;99.90;;;;;;5017288;28;20029;-64
2021/12/04 06:56:21;;;;;;;11.20;7.00;;;5.40;99.90;;;;;;5017478;28;20167;-64
2021/12/04 06:58:47;;;;;;;8.57;7.07;;;5.40;99.90;;;;;;5016072;28;20497;-64
2021/12/04 07:01:13;;;;;;;8.88;6.82;;;5.40;99.90;;;;;;5016955;28;20040;-63
2021/12/04 07:03:39;;;;;;;13.27;7.03;;;5.40;99.90;;;;;;5008033;28;20033;-64
2021/12/04 07:06:05;;;;;;;9.38;6.95;;;5.50;99.90;;;;;;5018426;28;20045;-64
2021/12/04 07:08:30;;;;;;;9.05;6.40;;;5.50;99.90;;;;;;5015632;28;20445;-64
2021/12/04 07:10:56;;;;;;;8.40;7.10;;;5.30;99.90;;;;;;5018174;28;20033;-64
2021/12/04 07:13:22;;;;;;;10.43;6.95;;;5.40;99.90;;;;;;5017160;28;20453;-64
2021/12/04 07:15:48;;;;;;;9.20;7.03;;;5.40;99.90;;;;;;5014711;28;20040;-64
2021/12/04 07:18:14;;;;;;;8.20;6.68;;;5.40;99.90;;;;;;5016786;28;20132;-64
2021/12/04 07:20:40;;;;;;;9.05;6.95;;;5.40;99.90;;;;;;5018931;28;20021;-64
2021/12/04 07:23:05;;;;;;;13.15;6.65;;;5.50;99.90;;;;;;5016837;28;20047;-64
2021/12/04 07:25:31;;;;;;;11.07;6.80;;;5.40;99.90;;;;;;5018033;28;20381;-64
2021/12/04 07:27:59;;;;;;;8.98;7.10;;;5.50;99.90;;;;;;5017626;28;20072;-64
2021/12/04 07:30:25;;;;;;;8.02;6.50;;;5.40;99.90;;;;;;5014556;28;20548;-64
2021/12/04 07:32:51;;;;;;;9.20;6.63;;;5.40;99.90;;;;;;5012466;28;20037;-64
2021/12/04 07:35:17;;;;;;;7.18;5.93;;;5.40;99.90;;;;;;5017512;28;20113;-64
2021/12/04 07:37:43;;;;;;;7.25;6.32;;;5.40;99.90;;;;;;5015643;28;20501;-64
2021/12/04 07:40:10;;;;;;;7.78;6.50;;;5.50;99.90;;;;;;5015352;28;20056;-64
2021/12/04 07:42:36;;;;;;;9.40;6.72;;;5.50;99.90;;;;;;5014299;28;20516;-64
2021/12/04 07:45:03;;;;;;;9.98;6.50;;;5.50;99.90;;;;;;5016103;28;20033;-64
2021/12/04 07:47:29;;;;;;;8.82;6.80;;;5.40;99.90;;;;;;5014977;28;20074;-64
2021/12/04 07:49:56;;;;;;;9.10;7.20;;;5.40;99.90;;;;;;5017809;28;20057;-65
2021/12/04 07:52:22;;;;;;;10.18;7.30;;;5.40;99.90;;;;;;5014764;28;20047;-64
2021/12/04 07:54:49;;;;;;;8.70;7.18;;;5.50;99.90;;;;;;5010642;28;20030;-64
2021/12/04 07:57:16;;;;;;;12.93;7.72;;;5.50;99.90;;;;;;5016056;28;20053;-64
2021/12/04 07:59:42;;;;;;;9.43;7.15;;;5.50;99.90;;;;;;5017266;28;20054;-65
2021/12/04 08:02:07;;;;;;;10.20;7.20;;;5.50;99.90;;;;;;5012387;28;20046;-65
2021/12/04 08:04:33;;;;;;;9.15;6.70;;;5.40;99.90;;;;;;5008715;28;20496;-65
2021/12/04 08:06:59;;;;;;;9.63;7.07;;;5.50;99.90;;;;;;5018832;28;20051;-64
2021/12/04 08:09:24;;;;;;;8.98;6.75;;;5.60;99.90;;;;;;5015620;28;20030;-65
2021/12/04 08:11:50;;;;;;;8.45;6.65;;;5.50;99.90;;;;;;5014394;28;20168;-64
2021/12/04 08:14:18;;;;;;;9.88;6.82;;;5.50;99.90;;;;;;5018441;28;20075;-64
2021/12/04 08:16:44;;;;;;;7.85;6.88;;;5.50;99.90;;;;;;5019889;28;20038;-64
2021/12/04 08:19:10;;;;;;;8.30;6.63;;;5.50;99.90;;;;;;5020051;28;20156;-64
2021/12/04 08:21:36;;;;;;;10.23;7.22;;;5.50;99.90;;;;;;5015405;28;20104;-64
2021/12/04 08:24:05;;;;;;;8.80;7.32;;;5.60;99.90;;;;;;5015274;28;20041;-65
2021/12/04 08:26:30;;;;;;;9.77;6.80;;;5.70;99.90;;;;;;5015310;28;20125;-65
2021/12/04 08:28:57;;;;;;;10.73;6.90;;;5.70;99.90;;;;;;5012456;28;20549;-65
2021/12/04 08:31:22;;;;;;;10.63;7.45;;;5.70;99.90;;;;;;5015741;28;20259;-64
2021/12/04 08:33:48;;;;;;;11.77;7.85;;;5.70;99.90;;;;;;5017631;28;20068;-64
2021/12/04 08:36:14;;;;;;;9.55;7.72;;;5.70;99.90;;;;;;5014380;28;20040;-65
2021/12/04 08:38:45;;;;;;;12.38;7.85;;;5.80;99.90;;;;;;5012605;28;20048;-64
2021/12/04 08:41:11;;;;;;;11.02;7.70;;;5.70;99.90;;;;;;5012173;28;20034;-64
2021/12/04 08:43:37;;;;;;;10.77;8.07;;;5.60;99.90;;;;;;5012515;28;20401;-64
2021/12/04 08:46:03;;;;;;;12.18;7.65;;;5.60;99.90;;;;;;5014735;28;20141;-65
2021/12/04 08:48:31;;;;;;;10.80;8.05;;;5.70;99.90;;;;;;5003507;28;20036;-65
2021/12/04 08:50:58;;;;;;;12.02;7.65;;;5.60;99.90;;;;;;5017750;28;20291;-67
2021/12/04 08:53:24;;;;;;;8.60;7.30;;;5.60;99.90;;;;;;5021377;28;20504;-68
2021/12/04 08:55:50;;;;;;;9.95;7.32;;;5.70;99.90;;;;;;5021004;28;20041;-68
2021/12/04 08:58:16;;;;;;;10.30;7.68;;;5.70;99.90;;;;;;5020287;28;20040;-68
2021/12/04 09:00:59;;;;;;;11.25;8.68;;;5.80;99.90;;;;;;5010428;28;20038;-67
2021/12/04 09:03:31;;;;;;;;;;;5.80;99.90;;;;;;5017436;28;20060;-68
2021/12/04 09:05:57;;;;;;;13.18;8.73;;;5.80;99.90;;;;;;5015705;28;19915;-68
2021/12/04 09:08:25;;;;;;;11.45;8.05;;;5.80;99.90;;;;;;5028447;28;20037;-68
2021/12/04 09:10:53;;;;;;;15.05;10.20;;;5.80;99.90;;;;;;5019903;28;20111;-68
2021/12/04 09:13:19;;;;;;;10.68;8.40;;;5.80;99.90;;;;;;5019682;28;20489;-67
2021/12/04 09:15:47;;;;;;;12.27;9.30;;;5.90;99.90;;;;;;5018188;28;20038;-68
2021/12/04 09:18:12;;;;;;;10.70;8.13;;;6.00;99.90;;;;;;5016290;28;20037;-68
2021/12/04 09:20:38;;;;;;;16.25;10.18;;;6.00;99.90;;;;;;5016789;28;20465;-68
2021/12/04 09:23:08;;;;;;;11.55;8.77;;;6.00;99.90;;;;;;5019810;28;20037;-68
2021/12/04 09:25:37;;;;;;;11.80;8.52;;;6.10;99.90;;;;;;5015190;28;20572;-68
2021/12/04 09:28:27;;;;;;;13.02;8.82;;;6.10;99.90;;;;;;5019092;28;20286;-68
2021/12/04 09:34:00;;;;;;;11.55;9.35;;;6.20;99.90;;;;;;5013920;28;20048;-68
2021/12/04 10:14:59;;;;;;;12.45;9.57;;;6.40;99.90;;;;;;5007487;28;20047;-67
2021/12/04 10:17:53;;;;;;;12.85;9.50;;;6.40;99.90;;;;;;5017534;28;20045;-66
2021/12/04 10:20:32;;;;;;;14.05;9.07;;;6.50;99.90;;;;;;5018719;28;20174;-67
2021/12/04 10:23:30;;;;;;;11.88;9.48;;;6.40;99.90;;;;;;5018412;28;20124;-67
2021/12/04 10:34:24;;;;;;;12.73;9.82;;;6.50;99.90;;;;;;5018582;28;20624;-67
2021/12/04 10:36:49;;;;;;;14.45;9.77;;;6.60;99.90;;;;;;5018345;28;20057;-67
2021/12/04 10:39:16;;;;;;;13.20;9.70;;;6.60;99.90;;;;;;5019098;28;20065;-66
2021/12/04 10:41:44;;;;;;;14.27;9.88;;;6.60;99.90;;;;;;5016840;28;20393;-67
2021/12/04 10:44:20;;;;;;;14.27;10.15;;;6.60;99.90;;;;;;5017563;28;20033;-66
2021/12/04 10:47:04;;;;;;;12.43;10.60;;;6.60;99.90;;;;;;5017703;28;20418;-66
2021/12/04 10:49:36;;;;;;;15.18;10.02;;;6.60;99.90;;;;;;5017992;28;20048;-67
2021/12/04 10:52:04;;;;;;;110.95;69.05;;;6.60;99.90;;;;;;5019564;28;20526;-67
2021/12/04 10:54:38;;;;;;;15.55;11.25;;;6.80;99.90;;;;;;5015282;28;20124;-67
2021/12/04 10:57:47;;;;;;;13.32;9.88;;;6.70;99.90;;;;;;5010346;28;20136;-67
2021/12/04 11:00:21;;;;;;;13.07;10.18;;;6.60;99.90;;;;;;5016937;28;20143;-67
2021/12/04 11:02:52;;;;;;;11.23;9.10;;;6.60;99.90;;;;;;5011796;28;20052;-67
2021/12/04 11:19:03;;;;;;;11.10;8.57;;;6.70;99.90;;;;;;5014271;28;20366;-67
2021/12/04 11:22:02;;;;;;;10.45;7.70;;;6.80;99.90;;;;;;5011985;28;20354;-67
2021/12/04 11:24:55;;;;;;;9.50;7.53;;;6.80;99.90;;;;;;5013235;28;20481;-67
2021/12/04 11:27:52;;;;;;;11.48;7.90;;;6.70;99.90;;;;;;5011890;28;20079;-67
2021/12/04 11:41:43;;;;;;;9.20;7.53;;;6.60;99.90;;;;;;5017343;28;20066;-67
2021/12/04 11:46:41;;;;;;;9.45;7.22;;;6.80;99.90;;;;;;5011490;28;20102;-67
2021/12/04 11:49:13;;;;;;;7.90;6.28;;;6.80;99.90;;;;;;5012101;28;20048;-67
2021/12/04 11:51:48;;;;;;;8.75;6.35;;;6.70;99.90;;;;;;5013972;28;20045;-67
2021/12/04 11:54:14;;;;;;;10.02;5.88;;;6.60;99.90;;;;;;5012113;28;20641;-67
2021/12/04 11:56:40;;;;;;;6.57;5.38;;;6.70;99.90;;;;;;5010076;28;20030;-67
2021/12/04 11:59:05;;;;;;;7.07;4.93;;;6.60;99.90;;;;;;5015692;28;20342;-67
2021/12/04 12:01:34;;;;;;;5.93;5.00;;;6.60;99.90;;;;;;5012198;28;20042;-67
2021/12/04 12:04:07;;;;;;;6.03;5.00;;;6.70;99.90;;;;;;5016258;28;20137;-67
2021/12/04 12:06:44;;;;;;;8.50;5.43;;;6.70;99.90;;;;;;5015866;28;20500;-67
2021/12/04 12:09:14;;;;;;;6.45;5.85;;;6.80;99.90;;;;;;5009967;28;20026;-67
2021/12/04 12:11:52;;;;;;;7.68;5.25;;;6.80;99.90;;;;;;5013225;28;20712;-67
2021/12/04 12:14:22;;;;;;;6.25;5.10;;;6.90;99.90;;;;;;5013128;28;20088;-67
2021/12/04 12:16:52;;;;;;;5.22;4.72;;;6.90;99.90;;;;;;5018059;28;20055;-67
2021/12/04 12:19:41;;;;;;;6.00;4.20;;;7.00;99.90;;;;;;5016852;28;20022;-67
2021/12/04 12:22:23;;;;;;;5.00;4.50;;;6.90;99.90;;;;;;5013364;28;20121;-67
2021/12/04 12:27:50;;;;;;;5.10;4.05;;;6.90;99.90;;;;;;5012431;28;20103;-67
2021/12/04 12:38:53;;;;;;;4.65;4.20;;;6.90;99.90;;;;;;5016828;28;20103;-67
2021/12/04 12:41:37;;;;;;;4.85;4.28;;;7.00;99.90;;;;;;5010511;28;20149;-67
2021/12/04 12:44:11;;;;;;;5.45;4.10;;;7.00;99.90;;;;;;5015867;28;20068;-67
2021/12/04 12:46:51;;;;;;;4.57;4.07;;;7.00;99.90;;;;;;5015055;28;20034;-66
2021/12/04 12:49:22;;;;;;;4.65;3.97;;;7.10;99.90;;;;;;5018502;28;20480;-66
2021/12/04 12:52:02;;;;;;;4.47;3.83;;;7.00;99.90;;;;;;5013829;28;21558;-65
2021/12/04 12:54:41;;;;;;;4.85;4.15;;;6.80;99.90;;;;;;5018592;28;20484;-66
2021/12/04 12:57:21;;;;;;;5.32;4.00;;;6.70;99.90;;;;;;5010023;28;20205;-66
2021/12/04 13:11:36;;;;;;;5.00;4.50;;;6.70;99.90;;;;;;5015163;28;20037;-65
2021/12/04 13:11:44;;;;;;;8.25;5.57;;;6.50;99.90;;;;;;5014063;28;20108;-65
2021/12/04 13:14:15;;;;;;;7.55;5.70;;;6.60;99.90;;;;;;5010730;28;20041;-66
2021/12/04 13:16:52;;;;;;;7.00;6.28;;;6.40;99.90;;;;;;5019109;28;20029;-67
2021/12/04 13:19:21;;;;;;;10.13;6.90;;;6.40;99.90;;;;;;5011501;28;20029;-66
2021/12/04 13:21:55;;;;;;;13.95;7.55;;;6.40;99.90;;;;;;5011555;28;20308;-66
2021/12/04 13:24:30;;;;;;;12.30;8.15;;;6.30;99.90;;;;;;5013438;28;20044;-66
2021/12/04 13:29:42;;;;;;;10.68;8.57;;;6.50;99.90;;;;;;5014519;28;20029;-66
2021/12/04 13:32:11;;;;;;;11.13;8.32;;;6.40;99.90;;;;;;5012441;28;20080;-65
2021/12/04 13:34:38;;;;;;;10.43;8.27;;;6.40;99.90;;;;;;5017553;28;20045;-65
2021/12/04 13:37:04;;;;;;;9.98;8.98;;;6.50;99.90;;;;;;5010670;28;20488;-66
2021/12/04 13:39:31;;;;;;;11.82;9.32;;;6.60;99.90;;;;;;5012673;28;20046;-66
2021/12/04 13:41:57;;;;;;;12.75;9.95;;;6.50;99.90;;;;;;5015125;28;20064;-66
2021/12/04 13:44:25;;;;;;;12.35;9.80;;;6.40;99.90;;;;;;5017145;28;20179;-66
2021/12/04 13:46:54;;;;;;;19.77;9.73;;;6.40;99.90;;;;;;5016416;28;20441;-67
2021/12/04 13:49:33;;;;;;;13.63;10.15;;;6.40;99.90;;;;;;5018578;28;20032;-67
2021/12/04 13:52:07;;;;;;;14.35;11.20;;;6.60;99.90;;;;;;5016061;28;20034;-67
2021/12/04 13:54:38;;;;;;;17.17;11.68;;;6.60;99.90;;;;;;5014844;28;20159;-68
2021/12/04 13:57:10;;;;;;;17.17;11.80;;;6.80;99.90;;;;;;5014855;28;20037;-67
2021/12/04 13:59:35;;;;;;;17.90;12.85;;;6.90;99.90;;;;;;5019458;28;20089;-67
2021/12/04 14:02:01;;;;;;;14.45;12.55;;;6.90;99.90;;;;;;5014753;28;20451;-67
2021/12/04 14:04:27;;;;;;;16.67;12.60;;;6.80;99.90;;;;;;5012293;28;20121;-67
2021/12/04 14:07:01;;;;;;;14.80;12.25;;;7.00;99.90;;;;;;5015905;28;20042;-67
2021/12/04 14:09:33;;;;;;;16.20;12.20;;;6.80;99.90;;;;;;5015961;28;20030;-66
2021/12/04 14:11:59;;;;;;;29.93;21.70;;;7.00;99.90;;;;;;5018245;28;20117;-64
2021/12/04 14:14:28;;;;;;;14.80;12.05;;;6.80;99.90;;;;;;5015716;28;20188;-67
2021/12/04 14:16:56;;;;;;;15.52;11.90;;;6.90;99.90;;;;;;5019295;28;20072;-67
2021/12/04 14:19:27;;;;;;;15.75;11.45;;;6.70;99.90;;;;;;5014904;28;20045;-66
2021/12/04 14:22:02;;;;;;;12.05;10.60;;;6.80;99.90;;;;;;5018017;28;20350;-67
2021/12/04 14:24:33;;;;;;;12.15;10.38;;;6.70;99.90;;;;;;5013562;28;20048;-66
2021/12/04 14:27:01;;;;;;;16.73;11.05;;;6.80;99.90;;;;;;5014069;28;20494;-66
2021/12/04 14:29:37;;;;;;;14.05;11.23;;;6.90;99.90;;;;;;5017712;28;20026;-66
2021/12/04 14:32:05;;;;;;;13.13;10.63;;;6.80;99.90;;;;;;5021678;28;20313;-66
2021/12/04 14:34:31;;;;;;;12.60;9.60;;;6.80;99.90;;;;;;5017112;28;20068;-66
2021/12/04 14:37:01;;;;;;;11.05;9.65;;;6.70;99.90;;;;;;5014796;28;20080;-66
2021/12/04 14:39:27;;;;;;;12.05;10.45;;;6.60;99.90;;;;;;5017794;28;20026;-66
2021/12/04 14:41:52;;;;;;;13.73;10.85;;;6.70;99.90;;;;;;5020010;28;20087;-66
2021/12/04 14:44:18;;;;;;;13.27;10.70;;;6.60;99.90;;;;;;5014776;28;20096;-65
2021/12/04 14:46:44;;;;;;;12.68;9.55;;;6.20;99.90;;;;;;5022453;28;20029;-64
2021/12/04 14:49:11;;;;;;;24.23;17.25;;;6.10;99.90;;;;;;5014202;28;20512;-64
2021/12/04 14:51:37;;;;;;;44.15;29.05;;;6.10;99.90;;;;;;5016593;28;20083;-67
2021/12/04 14:54:03;;;;;;;13.38;10.07;;;6.00;99.90;;;;;;5016229;28;20038;-65
2021/12/04 14:56:31;;;;;;;12.07;9.32;;;6.10;99.90;;;;;;5016950;28;20061;-65
2021/12/04 14:58:57;;;;;;;11.70;8.68;;;6.10;99.90;;;;;;5014480;28;20044;-65
2021/12/04 15:01:26;;;;;;;12.02;9.00;;;5.90;99.90;;;;;;5016319;28;20033;-65
2021/12/04 15:03:58;;;;;;;11.18;8.65;;;5.90;99.90;;;;;;5016445;28;20075;-66
2021/12/04 15:06:26;;;;;;;11.38;9.48;;;6.00;99.90;;;;;;5009614;28;20034;-65
2021/12/04 15:08:58;;;;;;;11.63;9.63;;;6.20;99.90;;;;;;5013801;28;20478;-65
2021/12/04 15:11:31;;;;;;;9.93;8.93;;;6.00;99.90;;;;;;5015499;28;20101;-65
2021/12/04 15:14:08;;;;;;;13.50;9.30;;;5.90;99.90;;;;;;5017996;28;20158;-65
2021/12/04 15:16:41;;;;;;;12.02;9.27;;;5.90;99.90;;;;;;5015617;28;20487;-65
2021/12/04 15:19:21;;;;;;;14.75;10.05;;;5.90;99.90;;;;;;5015614;28;20422;-65
2021/12/04 15:21:52;;;;;;;14.00;10.10;;;5.90;99.90;;;;;;5011387;28;20410;-65
2021/12/04 15:24:25;;;;;;;17.77;11.55;;;5.90;99.90;;;;;;5012312;28;20113;-65
2021/12/04 15:26:54;;;;;;;14.23;10.77;;;5.90;99.90;;;;;;5008406;28;20775;-65
2021/12/04 15:29:23;;;;;;;13.73;10.27;;;5.90;99.90;;;;;;5017818;28;20281;-66
2021/12/04 15:31:50;;;;;;;14.57;11.65;;;5.80;99.90;;;;;;5015537;28;20037;-65
2021/12/04 15:34:16;;;;;;;15.57;11.15;;;5.80;99.90;;;;;;5010162;28;20358;-65
2021/12/04 15:36:47;;;;;;;17.63;11.35;;;6.00;99.90;;;;;;5010060;28;20052;-66
2021/12/04 15:39:27;;;;;;;17.65;12.13;;;6.10;99.90;;;;;;5014354;28;20196;-66
2021/12/04 15:44:56;;;;;;;18.50;12.07;;;6.20;99.90;;;;;;5016718;28;20075;-66
2021/12/04 15:47:34;;;;;;;17.80;13.07;;;6.50;99.90;;;;;;5007796;28;20478;-67
2021/12/04 15:50:28;;;;;;;17.65;12.55;;;6.40;99.90;;;;;;5016657;28;20512;-66
2021/12/04 15:53:00;;;;;;;;;;;6.30;99.90;;;;;;5015667;28;20469;-65